Time;durP1;ratioP1;P1;durP2;ratioP2;P2;SDS_P1;SDS_P2;PMS_P1;PMS_P2;Temp;Humidity;BMP_temperature;BMP_pressure;BME280_temperature;BME280_humidity;BME280_pressure;Samples;Min_cycle;Max_cycle;Signal;HPM_P1;HPM_P2
2021/06/28 00:00:42;;;;;;;12.20;10.95;;;;;;;;;;5050871;28;20189;-72
2021/06/28 00:03:07;;;;;;;12.25;11.05;;;;;;;;;;5053615;28;20162;-72
2021/06/28 00:05:32;;;;;;;12.48;11.18;;;;;;;;;;5047084;28;20206;-72
2021/06/28 00:07:58;;;;;;;12.70;10.33;;;;;;;;;;5046855;28;20175;-72
2021/06/28 00:10:27;;;;;;;11.95;10.82;;;;;;;;;;5053086;28;20474;-72
2021/06/28 00:12:52;;;;;;;13.07;11.73;;;;;;;;;;5051714;28;20175;-72
2021/06/28 00:15:19;;;;;;;11.63;10.30;;;;;;;;;;5047769;28;20204;-72
2021/06/28 00:17:45;;;;;;;10.90;9.90;;;;;;;;;;5030251;28;20210;-73
2021/06/28 00:20:10;;;;;;;11.65;10.43;;;;;;;;;;5041222;28;20727;-72
2021/06/28 00:22:36;;;;;;;12.52;11.15;;;;;;;;;;5054238;28;20205;-72
2021/06/28 00:25:04;;;;;;;12.38;11.18;;;;;;;;;;5052067;28;20198;-72
2021/06/28 00:27:29;;;;;;;10.77;9.77;;;;;;;;;;5050735;28;20193;-72
2021/06/28 00:29:54;;;;;;;13.32;10.05;;;;;;;;;;5033995;28;20206;-72
2021/06/28 00:32:20;;;;;;;11.65;10.55;;;;;;;;;;5026928;28;20227;-72
2021/06/28 00:34:45;;;;;;;12.18;11.07;;;;;;;;;;5029195;28;20213;-72
2021/06/28 00:37:10;;;;;;;11.02;10.00;;;;;;;;;;5031593;28;20170;-72
2021/06/28 00:39:35;;;;;;;12.15;10.82;;;;;;;;;;5019918;28;20214;-72
2021/06/28 00:42:01;;;;;;;13.23;11.00;;;;;;;;;;5027821;28;20197;-73
2021/06/28 00:44:26;;;;;;;11.27;10.20;;;;;;;;;;5024665;28;20457;-72
2021/06/28 00:46:51;;;;;;;11.65;10.55;;;;;;;;;;5024945;28;20207;-72
2021/06/28 00:49:17;;;;;;;11.60;10.48;;;;;;;;;;5022270;28;20422;-73
2021/06/28 00:51:42;;;;;;;11.40;10.35;;;;;;;;;;5026747;28;20257;-72
2021/06/28 00:54:07;;;;;;;11.77;10.52;;;;;;;;;;5025159;28;20601;-72
2021/06/28 00:56:33;;;;;;;11.90;10.70;;;;;;;;;;5021606;28;20213;-72
2021/06/28 00:58:58;;;;;;;11.95;10.70;;;;;;;;;;5019118;28;20895;-72
2021/06/28 01:01:23;;;;;;;11.13;10.00;;;;;;;;;;5027091;28;20728;-72
2021/06/28 01:03:48;;;;;;;12.50;11.23;;;;;;;;;;5019356;28;20198;-72
2021/06/28 01:06:15;;;;;;;11.70;10.50;;;;;;;;;;5027885;28;20608;-72
2021/06/28 01:08:40;;;;;;;12.23;10.93;;;;;;;;;;5022631;28;20656;-72
2021/06/28 01:11:05;;;;;;;12.07;10.77;;;;;;;;;;5022828;28;20190;-72
2021/06/28 01:13:31;;;;;;;11.63;10.40;;;;;;;;;;5028081;28;20178;-72
2021/06/28 01:15:56;;;;;;;14.43;11.32;;;;;;;;;;5026723;28;20210;-72
2021/06/28 01:18:22;;;;;;;11.88;10.70;;;;;;;;;;5027180;28;20171;-72
2021/06/28 01:20:47;;;;;;;11.90;10.73;;;;;;;;;;5025732;28;20188;-72
2021/06/28 01:23:23;;;;;;;12.00;10.65;;;;;;;;;;5026060;28;20179;-72
2021/06/28 01:25:49;;;;;;;12.15;10.98;;;;;;;;;;5021000;28;20201;-72
2021/06/28 01:28:15;;;;;;;13.02;10.70;;;;;;;;;;5022708;28;20290;-72
2021/06/28 01:30:40;;;;;;;12.18;10.98;;;;;;;;;;5027738;28;20202;-71
2021/06/28 01:33:05;;;;;;;12.25;11.05;;;;;;;;;;5026945;28;20181;-71
2021/06/28 01:35:31;;;;;;;12.18;10.98;;;;;;;;;;5026489;28;20202;-71
2021/06/28 01:37:56;;;;;;;12.10;10.90;;;;;;;;;;5025336;28;20222;-73
2021/06/28 01:40:21;;;;;;;14.07;12.68;;;;;;;;;;5026086;28;20193;-71
2021/06/28 01:42:47;;;;;;;12.93;11.60;;;;;;;;;;5027807;28;20264;-74
2021/06/28 01:45:14;;;;;;;12.60;11.43;;;;;;;;;;5027666;28;20237;-71
2021/06/28 01:47:41;;;;;;;13.77;11.70;;;;;;;;;;5022344;28;20178;-73
2021/06/28 01:50:08;;;;;;;13.27;11.98;;;;;;;;;;5028674;28;20186;-74
2021/06/28 01:52:33;;;;;;;14.25;12.50;;;;;;;;;;5030966;28;20637;-71
2021/06/28 01:54:59;;;;;;;16.52;13.82;;;;;;;;;;5026549;28;20226;-71
2021/06/28 01:57:24;;;;;;;13.50;12.20;;;;;;;;;;5026807;28;20182;-72
2021/06/28 01:59:49;;;;;;;12.40;11.30;;;;;;;;;;5019690;28;20273;-72
2021/06/28 02:02:15;;;;;;;12.50;11.18;;;;;;;;;;5023444;28;20183;-71
2021/06/28 02:04:40;;;;;;;13.60;12.23;;;;;;;;;;5021614;28;20203;-71
2021/06/28 02:07:07;;;;;;;13.57;12.27;;;;;;;;;;5028073;28;20908;-72
2021/06/28 02:09:33;;;;;;;13.35;12.05;;;;;;;;;;5018182;28;20204;-72
2021/06/28 02:11:58;;;;;;;12.70;11.40;;;;;;;;;;5024000;28;20181;-73
2021/06/28 02:14:23;;;;;;;13.32;11.90;;;;;;;;;;5022556;28;20229;-72
2021/06/28 02:16:49;;;;;;;14.02;12.63;;;;;;;;;;5016508;28;20190;-72
2021/06/28 02:19:14;;;;;;;12.85;11.63;;;;;;;;;;5027149;28;20240;-72
2021/06/28 02:21:40;;;;;;;12.20;11.07;;;;;;;;;;5025169;28;20182;-72
2021/06/28 02:24:06;;;;;;;12.88;11.57;;;;;;;;;;5024588;28;20650;-72
2021/06/28 02:26:31;;;;;;;14.55;12.85;;;;;;;;;;5020172;28;20197;-72
2021/06/28 02:28:56;;;;;;;12.57;11.45;;;;;;;;;;5023973;28;20225;-73
2021/06/28 02:31:22;;;;;;;12.10;10.87;;;;;;;;;;5027410;28;20620;-72
2021/06/28 02:33:48;;;;;;;12.43;11.07;;;;;;;;;;5028887;28;20974;-72
2021/06/28 02:36:13;;;;;;;12.07;10.98;;;;;;;;;;5023278;28;20189;-72
2021/06/28 02:38:39;;;;;;;11.35;10.18;;;;;;;;;;5027925;28;20235;-72
2021/06/28 02:41:05;;;;;;;13.38;11.95;;;;;;;;;;5027228;28;20186;-72
2021/06/28 02:43:30;;;;;;;13.90;12.30;;;;;;;;;;5017033;28;20426;-73
2021/06/28 02:45:56;;;;;;;12.63;11.43;;;;;;;;;;5022658;28;20592;-73
2021/06/28 02:48:22;;;;;;;13.40;11.07;;;;;;;;;;5021105;28;20588;-73
2021/06/28 02:50:47;;;;;;;14.55;13.00;;;;;;;;;;5023867;28;20640;-73
2021/06/28 02:53:16;;;;;;;17.42;13.70;;;;;;;;;;5023840;28;20198;-74
2021/06/28 02:55:41;;;;;;;15.05;13.18;;;;;;;;;;5028703;28;20656;-73
2021/06/28 02:58:06;;;;;;;14.75;13.30;;;;;;;;;;5026982;28;20194;-73
2021/06/28 03:00:32;;;;;;;16.65;14.80;;;;;;;;;;5025419;28;20261;-73
2021/06/28 03:02:59;;;;;;;15.70;14.20;;;;;;;;;;5026561;28;20182;-73
2021/06/28 03:05:24;;;;;;;17.15;15.35;;;;;;;;;;5024919;28;20214;-72
2021/06/28 03:07:49;;;;;;;16.20;14.60;;;;;;;;;;5029883;28;20178;-73
2021/06/28 03:10:15;;;;;;;18.20;15.65;;;;;;;;;;5024838;28;20570;-73
2021/06/28 03:12:40;;;;;;;17.63;15.70;;;;;;;;;;5032838;28;20174;-73
2021/06/28 03:15:07;;;;;;;17.83;15.50;;;;;;;;;;5031050;28;20213;-73
2021/06/28 03:17:32;;;;;;;17.08;15.38;;;;;;;;;;5031967;28;20193;-73
2021/06/28 03:19:58;;;;;;;17.90;16.02;;;;;;;;;;5031837;28;20170;-73
2021/06/28 03:22:23;;;;;;;15.32;13.80;;;;;;;;;;5033706;28;20328;-73
2021/06/28 03:24:48;;;;;;;18.05;16.25;;;;;;;;;;5030394;28;20712;-73
2021/06/28 03:27:13;;;;;;;15.55;13.95;;;;;;;;;;5028301;28;20262;-73
2021/06/28 03:29:38;;;;;;;16.25;14.65;;;;;;;;;;5027014;28;20519;-73
2021/06/28 03:32:04;;;;;;;17.50;15.65;;;;;;;;;;5029821;28;20230;-73
2021/06/28 03:34:29;;;;;;;17.30;15.57;;;;;;;;;;5025686;28;20202;-73
2021/06/28 03:36:54;;;;;;;15.98;14.35;;;;;;;;;;5030431;28;20174;-73
2021/06/28 03:39:19;;;;;;;18.15;16.40;;;;;;;;;;5018774;28;20186;-73
2021/06/28 03:41:44;;;;;;;19.30;17.30;;;;;;;;;;5026542;28;20213;-73
2021/06/28 03:44:10;;;;;;;20.00;17.83;;;;;;;;;;5024389;28;20726;-73
2021/06/28 03:46:35;;;;;;;19.80;17.70;;;;;;;;;;5029780;28;20205;-73
2021/06/28 03:49:00;;;;;;;18.00;16.13;;;;;;;;;;5024928;28;20258;-73
2021/06/28 03:51:25;;;;;;;20.40;17.95;;;;;;;;;;5030488;28;20265;-73
2021/06/28 03:53:51;;;;;;;19.73;17.50;;;;;;;;;;5027730;28;20198;-74
2021/06/28 03:56:17;;;;;;;22.10;18.83;;;;;;;;;;5029593;28;20179;-73
2021/06/28 03:58:43;;;;;;;21.02;18.80;;;;;;;;;;5031604;28;20526;-73
2021/06/28 04:01:08;;;;;;;20.80;18.52;;;;;;;;;;5029294;28;20185;-73
2021/06/28 04:03:36;;;;;;;24.25;20.55;;;;;;;;;;5024450;28;20215;-74
2021/06/28 04:06:04;;;;;;;23.63;20.33;;;;;;;;;;5029791;28;20209;-73
2021/06/28 04:08:30;;;;;;;23.30;20.45;;;;;;;;;;5028022;28;20550;-73
2021/06/28 04:10:55;;;;;;;23.67;21.17;;;;;;;;;;5028316;28;20174;-73
2021/06/28 04:13:20;;;;;;;25.60;22.50;;;;;;;;;;5029120;28;20179;-74
2021/06/28 04:15:46;;;;;;;22.52;19.40;;;;;;;;;;5039612;28;20193;-73
2021/06/28 04:18:11;;;;;;;24.92;22.23;;;;;;;;;;5050761;28;20170;-73
2021/06/28 04:20:36;;;;;;;21.85;19.48;;;;;;;;;;5052008;28;20239;-73
2021/06/28 04:23:02;;;;;;;21.77;19.50;;;;;;;;;;5049199;28;20170;-73
2021/06/28 04:25:27;;;;;;;22.25;20.05;;;;;;;;;;5046730;28;20222;-74
2021/06/28 04:27:52;;;;;;;23.23;20.48;;;;;;;;;;5051447;28;20205;-71
2021/06/28 04:30:18;;;;;;;20.63;18.45;;;;;;;;;;5054715;28;20194;-71
2021/06/28 04:32:44;;;;;;;21.98;19.05;;;;;;;;;;5054892;28;20189;-73
2021/06/28 04:35:10;;;;;;;21.70;19.50;;;;;;;;;;5047656;28;20183;-73
2021/06/28 04:37:36;;;;;;;22.70;20.40;;;;;;;;;;5044766;28;20652;-71
2021/06/28 04:40:02;;;;;;;20.60;18.70;;;;;;;;;;5033837;28;20199;-74
2021/06/28 04:42:28;;;;;;;19.27;17.08;;;;;;;;;;5044261;28;20190;-71
2021/06/28 04:44:53;;;;;;;18.77;16.88;;;;;;;;;;5041258;28;20225;-70
2021/06/28 04:47:18;;;;;;;17.75;16.02;;;;;;;;;;5052223;28;20185;-73
2021/06/28 04:49:43;;;;;;;16.98;15.38;;;;;;;;;;5045565;28;20201;-73
2021/06/28 04:52:08;;;;;;;15.83;14.43;;;;;;;;;;5032877;28;20403;-72
2021/06/28 04:54:34;;;;;;;16.13;14.65;;;;;;;;;;5030579;28;20542;-74
2021/06/28 04:56:59;;;;;;;15.07;13.67;;;;;;;;;;5028641;28;20236;-73
2021/06/28 04:59:24;;;;;;;14.70;13.48;;;;;;;;;;5025618;28;20474;-72
2021/06/28 05:01:49;;;;;;;15.32;13.82;;;;;;;;;;5016811;28;20187;-72
2021/06/28 05:04:14;;;;;;;14.77;13.47;;;;;;;;;;5020021;28;20202;-72
2021/06/28 05:06:40;;;;;;;12.98;11.77;;;;;;;;;;5022256;28;21022;-71
2021/06/28 05:09:05;;;;;;;14.57;13.17;;;;;;;;;;5027176;28;20186;-73
2021/06/28 05:11:30;;;;;;;14.43;13.02;;;;;;;;;;5031953;28;20412;-73
2021/06/28 05:13:55;;;;;;;13.73;12.50;;;;;;;;;;5027938;28;20205;-72
2021/06/28 05:16:20;;;;;;;12.00;10.90;;;;;;;;;;5027563;28;20451;-71
2021/06/28 05:18:46;;;;;;;13.53;12.33;;;;;;;;;;5017266;28;20194;-71
2021/06/28 05:21:11;;;;;;;12.38;11.27;;;;;;;;;;5017679;28;20431;-70
2021/06/28 05:23:36;;;;;;;11.43;10.43;;;;;;;;;;5023525;28;20587;-71
2021/06/28 05:26:01;;;;;;;11.35;10.25;;;;;;;;;;5021104;28;20198;-71
2021/06/28 05:28:26;;;;;;;12.80;11.52;;;;;;;;;;5019902;28;20224;-72
2021/06/28 05:30:52;;;;;;;11.60;10.50;;;;;;;;;;5028966;28;20296;-71
2021/06/28 05:33:17;;;;;;;10.32;9.43;;;;;;;;;;5024353;28;20812;-71
2021/06/28 05:35:42;;;;;;;11.40;10.27;;;;;;;;;;5025350;28;20189;-71
2021/06/28 05:38:07;;;;;;;10.85;9.77;;;;;;;;;;5025776;28;20195;-71
2021/06/28 05:40:33;;;;;;;12.77;11.48;;;;;;;;;;5023560;28;20186;-75
2021/06/28 05:42:58;;;;;;;12.85;11.65;;;;;;;;;;5026357;28;20198;-71
2021/06/28 05:45:23;;;;;;;12.18;11.10;;;;;;;;;;5026371;28;20213;-71
2021/06/28 05:47:48;;;;;;;11.57;10.57;;;;;;;;;;5024702;28;20178;-72
2021/06/28 05:50:17;;;;;;;12.13;10.95;;;;;;;;;;5017552;28;20253;-74
2021/06/28 05:52:43;;;;;;;12.25;11.23;;;;;;;;;;5025912;28;20652;-72
2021/06/28 05:55:09;;;;;;;11.15;10.15;;;;;;;;;;5028151;28;20205;-72
2021/06/28 05:57:35;;;;;;;11.68;10.50;;;;;;;;;;5023814;28;20175;-72
2021/06/28 06:00:00;;;;;;;12.45;11.20;;;;;;;;;;5019978;28;20185;-72
2021/06/28 06:02:25;;;;;;;12.47;11.20;;;;;;;;;;5030967;28;20214;-72
2021/06/28 06:04:50;;;;;;;12.73;10.35;;;;;;;;;;5019460;28;20800;-74
2021/06/28 06:07:15;;;;;;;13.00;10.47;;;;;;;;;;5015406;28;20274;-71
2021/06/28 06:09:41;;;;;;;11.47;10.37;;;;;;;;;;5029488;28;20431;-71
2021/06/28 06:12:06;;;;;;;11.50;10.25;;;;;;;;;;5028529;28;20426;-71
2021/06/28 06:14:32;;;;;;;11.85;10.75;;;;;;;;;;5025875;28;20206;-73
2021/06/28 06:16:57;;;;;;;11.40;10.18;;;;;;;;;;5020335;28;20534;-72
2021/06/28 06:19:23;;;;;;;12.55;11.35;;;;;;;;;;5025717;28;20186;-72
2021/06/28 06:21:48;;;;;;;13.25;11.85;;;;;;;;;;5020642;28;20194;-72
2021/06/28 06:24:13;;;;;;;12.50;10.68;;;;;;;;;;5018215;28;20684;-73
2021/06/28 06:26:39;;;;;;;18.20;13.27;;;;;;;;;;5026694;28;20703;-72
2021/06/28 06:29:04;;;;;;;14.07;12.68;;;;;;;;;;5017478;28;20589;-72
2021/06/28 06:31:29;;;;;;;13.50;11.15;;;;;;;;;;5029127;28;20205;-72
2021/06/28 06:33:54;;;;;;;12.07;10.68;;;;;;;;;;5027698;28;20265;-72
2021/06/28 06:36:19;;;;;;;11.33;10.07;;;;;;;;;;5029732;28;20185;-72
2021/06/28 06:38:45;;;;;;;11.27;10.20;;;;;;;;;;5024786;28;20427;-72
2021/06/28 06:41:11;;;;;;;11.73;10.60;;;;;;;;;;5025805;28;20182;-72
2021/06/28 06:43:37;;;;;;;11.60;10.38;;;;;;;;;;5020581;28;20213;-72
2021/06/28 06:46:02;;;;;;;12.93;11.68;;;;;;;;;;5020589;28;20718;-72
2021/06/28 06:48:28;;;;;;;11.15;10.15;;;;;;;;;;5016352;28;20879;-72
2021/06/28 06:50:53;;;;;;;11.00;10.07;;;;;;;;;;5015706;28;20305;-73
2021/06/28 06:53:18;;;;;;;11.98;10.77;;;;;;;;;;5028528;28;20404;-71
2021/06/28 06:55:45;;;;;;;12.03;10.87;;;;;;;;;;5028306;28;20190;-72
2021/06/28 06:58:10;;;;;;;11.93;10.82;;;;;;;;;;5023956;28;20419;-72
2021/06/28 07:00:37;;;;;;;12.05;10.95;;;;;;;;;;5018951;28;20614;-71
2021/06/28 07:03:02;;;;;;;12.82;11.68;;;;;;;;;;5016421;28;20248;-72
2021/06/28 07:05:27;;;;;;;12.18;10.68;;;;;;;;;;5020788;28;20209;-71
2021/06/28 07:07:53;;;;;;;14.27;12.87;;;;;;;;;;5018541;28;20178;-72
2021/06/28 07:10:18;;;;;;;12.73;11.45;;;;;;;;;;5020992;28;20813;-72
2021/06/28 07:12:44;;;;;;;11.55;10.38;;;;;;;;;;5023613;28;20189;-71
2021/06/28 07:15:11;;;;;;;12.60;11.50;;;;;;;;;;5019420;28;20198;-71
2021/06/28 07:17:36;;;;;;;12.57;11.38;;;;;;;;;;5024626;28;20218;-71
2021/06/28 07:20:02;;;;;;;10.65;9.65;;;;;;;;;;5022109;28;20218;-72
2021/06/28 07:22:27;;;;;;;13.15;12.00;;;;;;;;;;5019725;28;20182;-71
2021/06/28 07:24:52;;;;;;;11.95;10.85;;;;;;;;;;5026882;28;20723;-71
2021/06/28 07:27:18;;;;;;;12.18;11.10;;;;;;;;;;5018010;28;20261;-72
2021/06/28 07:29:43;;;;;;;12.45;11.35;;;;;;;;;;5021050;28;20206;-72
2021/06/28 07:32:09;;;;;;;13.57;12.27;;;;;;;;;;5023109;28;20170;-72
2021/06/28 07:34:34;;;;;;;12.13;11.05;;;;;;;;;;5026899;28;20199;-72
2021/06/28 07:36:59;;;;;;;12.25;11.15;;;;;;;;;;5010596;28;20668;-72
2021/06/28 07:39:25;;;;;;;14.05;12.75;;;;;;;;;;5016233;28;20189;-72
2021/06/28 07:41:51;;;;;;;11.77;10.77;;;;;;;;;;5017914;28;20316;-72
2021/06/28 07:44:16;;;;;;;11.63;10.70;;;;;;;;;;5017959;28;20202;-72
2021/06/28 07:46:42;;;;;;;11.82;10.73;;;;;;;;;;5013604;28;20218;-73
2021/06/28 07:49:07;;;;;;;12.27;11.18;;;;;;;;;;5016648;28;20217;-73
2021/06/28 07:51:35;;;;;;;13.67;12.37;;;;;;;;;;5019626;28;20186;-72
2021/06/28 07:54:02;;;;;;;12.55;10.45;;;;;;;;;;5020074;28;20565;-73
2021/06/28 07:56:27;;;;;;;10.93;9.82;;;;;;;;;;5013443;28;20708;-72
2021/06/28 07:58:52;;;;;;;12.53;11.23;;;;;;;;;;5019877;28;20171;-72
2021/06/28 08:01:17;;;;;;;12.73;11.53;;;;;;;;;;5013956;28;20289;-73
2021/06/28 08:03:47;;;;;;;13.35;12.05;;;;;;;;;;5017440;28;20451;-72
2021/06/28 08:06:12;;;;;;;11.90;10.80;;;;;;;;;;5018870;28;20767;-73
2021/06/28 08:08:37;;;;;;;12.43;11.38;;;;;;;;;;5015593;28;20219;-73
2021/06/28 08:11:04;;;;;;;11.70;10.70;;;;;;;;;;5020937;28;20204;-73
2021/06/28 08:13:29;;;;;;;11.90;10.90;;;;;;;;;;5017709;28;20440;-73
2021/06/28 08:15:54;;;;;;;12.90;11.63;;;;;;;;;;5019660;28;20652;-73
2021/06/28 08:18:19;;;;;;;12.00;11.00;;;;;;;;;;5020063;28;20190;-71
2021/06/28 08:20:44;;;;;;;12.65;11.55;;;;;;;;;;5018713;28;20377;-73
2021/06/28 08:23:10;;;;;;;10.87;9.93;;;;;;;;;;5017728;28;20183;-73
2021/06/28 08:25:36;;;;;;;11.40;10.40;;;;;;;;;;5018782;28;20459;-74
2021/06/28 08:28:02;;;;;;;10.77;9.55;;;;;;;;;;5020082;28;20178;-73
2021/06/28 08:30:27;;;;;;;11.50;10.50;;;;;;;;;;5017751;28;20195;-73
2021/06/28 08:32:52;;;;;;;10.93;9.83;;;;;;;;;;5019197;28;20720;-73
2021/06/28 08:35:17;;;;;;;9.77;8.97;;;;;;;;;;5018239;28;20297;-73
2021/06/28 08:37:42;;;;;;;10.65;9.57;;;;;;;;;;5022669;28;20438;-73
2021/06/28 08:40:09;;;;;;;11.63;10.43;;;;;;;;;;5025125;28;20179;-72
2021/06/28 08:42:35;;;;;;;10.13;9.23;;;;;;;;;;5023806;28;20676;-71
2021/06/28 08:45:00;;;;;;;10.77;9.77;;;;;;;;;;5030117;28;20209;-71
2021/06/28 08:47:27;;;;;;;11.18;10.18;;;;;;;;;;5031649;28;20181;-71
2021/06/28 08:49:53;;;;;;;10.73;9.75;;;;;;;;;;5044099;28;20182;-71
2021/06/28 08:52:19;;;;;;;11.63;10.47;;;;;;;;;;5041759;28;20197;-71
2021/06/28 08:54:45;;;;;;;10.80;9.90;;;;;;;;;;5034815;28;20439;-71
2021/06/28 08:57:10;;;;;;;11.00;9.93;;;;;;;;;;5036582;28;20202;-71
2021/06/28 08:59:35;;;;;;;10.13;9.13;;;;;;;;;;5035002;28;20434;-72
2021/06/28 09:02:02;;;;;;;11.60;10.13;;;;;;;;;;5037734;28;20436;-72
2021/06/28 09:04:27;;;;;;;10.38;9.48;;;;;;;;;;5055007;28;20233;-72
2021/06/28 09:06:53;;;;;;;9.73;8.83;;;;;;;;;;5050843;28;20206;-71
2021/06/28 09:09:19;;;;;;;9.37;8.57;;;;;;;;;;5043180;28;20197;-71
2021/06/28 09:11:45;;;;;;;9.63;8.73;;;;;;;;;;5035049;28;20435;-72
2021/06/28 09:14:11;;;;;;;10.95;9.95;;;;;;;;;;5030187;28;20220;-72
2021/06/28 09:16:37;;;;;;;10.20;9.25;;;;;;;;;;5015731;28;20183;-72
2021/06/28 09:19:12;;;;;;;8.90;8.00;;;;;;;;;;5016849;28;20170;-73
2021/06/28 09:21:42;;;;;;;7.40;6.78;;;;;;;;;;5015002;28;20182;-72
2021/06/28 09:24:22;;;;;;;9.52;8.65;;;;;;;;;;5017997;28;20715;-72
2021/06/28 09:26:47;;;;;;;9.75;8.85;;;;;;;;;;5014628;28;20213;-72
2021/06/28 09:29:12;;;;;;;9.23;8.43;;;;;;;;;;5016871;28;20192;-72
2021/06/28 09:31:45;;;;;;;9.03;8.13;;;;;;;;;;5017296;28;20216;-73
2021/06/28 09:34:11;;;;;;;9.70;8.93;;;;;;;;;;5013133;28;20690;-71
2021/06/28 09:36:47;;;;;;;7.95;7.15;;;;;;;;;;5016665;28;20192;-71
2021/06/28 09:39:27;;;;;;;8.18;7.47;;;;;;;;;;5019086;28;20193;-71
2021/06/28 09:41:58;;;;;;;9.45;8.65;;;;;;;;;;5013546;28;20220;-73
2021/06/28 09:44:24;;;;;;;8.43;7.70;;;;;;;;;;5014136;28;20762;-74
2021/06/28 09:47:02;;;;;;;8.25;7.55;;;;;;;;;;5016808;28;20596;-71
2021/06/28 09:49:28;;;;;;;8.23;7.53;;;;;;;;;;5017795;28;20248;-71
2021/06/28 09:51:53;;;;;;;8.15;7.45;;;;;;;;;;5016340;28;20175;-71
2021/06/28 09:54:19;;;;;;;8.03;7.33;;;;;;;;;;5020880;28;20200;-71
2021/06/28 09:56:46;;;;;;;9.18;8.27;;;;;;;;;;5015853;28;20174;-71
2021/06/28 09:59:18;;;;;;;8.27;7.57;;;;;;;;;;5015368;28;20202;-71
2021/06/28 10:01:43;;;;;;;10.18;9.27;;;;;;;;;;5014645;28;20205;-71
2021/06/28 10:04:09;;;;;;;11.07;10.07;;;;;;;;;;5009296;28;20725;-69
2021/06/28 10:06:35;;;;;;;10.77;9.77;;;;;;;;;;5014031;28;20213;-71
2021/06/28 10:09:00;;;;;;;10.10;9.20;;;;;;;;;;5015669;28;20428;-71
2021/06/28 10:11:26;;;;;;;11.40;10.40;;;;;;;;;;5025840;28;20193;-72
2021/06/28 10:13:57;;;;;;;9.50;8.52;;;;;;;;;;5011464;28;20202;-71
2021/06/28 10:16:24;;;;;;;10.57;9.57;;;;;;;;;;5010480;28;20191;-71
2021/06/28 10:18:51;;;;;;;11.15;10.00;;;;;;;;;;5008089;28;20846;-71
2021/06/28 10:21:16;;;;;;;11.63;10.63;;;;;;;;;;5010260;28;21288;-71
2021/06/28 10:23:41;;;;;;;11.48;10.38;;;;;;;;;;5010210;28;20595;-72
2021/06/28 10:26:07;;;;;;;12.25;11.15;;;;;;;;;;5010726;28;21747;-73
2021/06/28 10:28:36;;;;;;;13.13;11.35;;;;;;;;;;5013947;28;20186;-72
2021/06/28 10:31:04;;;;;;;11.57;10.57;;;;;;;;;;5017503;28;20167;-72
2021/06/28 10:33:30;;;;;;;12.60;10.35;;;;;;;;;;5011319;28;20304;-72
2021/06/28 10:36:00;;;;;;;11.30;10.27;;;;;;;;;;5016971;28;20666;-72
2021/06/28 10:38:41;;;;;;;11.45;10.40;;;;;;;;;;5018189;28;20187;-72
2021/06/28 10:41:06;;;;;;;11.63;10.57;;;;;;;;;;5016195;28;20211;-72
2021/06/28 10:43:32;;;;;;;11.70;10.60;;;;;;;;;;5015232;28;20214;-72
2021/06/28 10:45:59;;;;;;;12.88;11.68;;;;;;;;;;5019446;28;20443;-73
2021/06/28 10:48:25;;;;;;;12.55;11.18;;;;;;;;;;5021339;28;20174;-72
2021/06/28 10:51:04;;;;;;;12.70;11.45;;;;;;;;;;5021024;28;20179;-72
2021/06/28 10:53:31;;;;;;;13.50;12.02;;;;;;;;;;5023073;28;20182;-73
2021/06/28 10:55:57;;;;;;;12.90;11.60;;;;;;;;;;5019299;28;20639;-72
2021/06/28 10:58:23;;;;;;;15.18;13.65;;;;;;;;;;5021447;28;20193;-72
2021/06/28 11:00:49;;;;;;;15.18;13.65;;;;;;;;;;5016343;28;20189;-72
2021/06/28 11:03:23;;;;;;;15.55;14.10;;;;;;;;;;5016069;28;20637;-73
2021/06/28 11:06:08;;;;;;;15.40;14.00;;;;;;;;;;5017282;28;20296;-73
2021/06/28 11:08:33;;;;;;;15.63;14.18;;;;;;;;;;5018674;28;20644;-73
2021/06/28 11:10:58;;;;;;;15.80;14.20;;;;;;;;;;5019285;28;20201;-73
2021/06/28 11:13:28;;;;;;;15.90;14.30;;;;;;;;;;5016143;28;20460;-73
2021/06/28 11:15:53;;;;;;;15.38;13.85;;;;;;;;;;5016951;28;20427;-73
2021/06/28 11:18:28;;;;;;;17.05;15.43;;;;;;;;;;5017369;28;20186;-73
2021/06/28 11:20:54;;;;;;;16.25;14.65;;;;;;;;;;5012650;28;20917;-71
2021/06/28 11:23:19;;;;;;;14.88;13.38;;;;;;;;;;5016735;28;20185;-71
2021/06/28 11:25:44;;;;;;;13.15;11.57;;;;;;;;;;5013399;28;20270;-72
2021/06/28 11:28:10;;;;;;;12.60;11.47;;;;;;;;;;5015806;28;20179;-73
2021/06/28 11:30:44;;;;;;;14.25;12.75;;;;;;;;;;5016349;28;20428;-73
2021/06/28 11:33:10;;;;;;;12.80;11.70;;;;;;;;;;5017233;28;20179;-73
2021/06/28 11:35:35;;;;;;;12.68;11.38;;;;;;;;;;5014990;28;20279;-72
2021/06/28 11:38:19;;;;;;;13.20;11.87;;;;;;;;;;5017370;28;20897;-73
2021/06/28 11:40:51;;;;;;;12.18;10.57;;;;;;;;;;5019886;28;20186;-72
2021/06/28 11:43:32;;;;;;;12.18;11.18;;;;;;;;;;5017351;28;20190;-72
2021/06/28 11:45:57;;;;;;;12.82;11.57;;;;;;;;;;5018990;28;20347;-72
2021/06/28 11:48:36;;;;;;;11.55;9.98;;;;;;;;;;5016979;28;20576;-71
2021/06/28 11:51:10;;;;;;;11.88;10.20;;;;;;;;;;5017138;28;20188;-72
2021/06/28 11:53:35;;;;;;;11.30;10.20;;;;;;;;;;5018072;28;20208;-72
2021/06/28 11:56:00;;;;;;;12.60;11.00;;;;;;;;;;5018211;28;20193;-72
2021/06/28 11:58:26;;;;;;;10.30;9.00;;;;;;;;;;5018420;28;20625;-72
2021/06/28 12:01:04;;;;;;;11.60;10.50;;;;;;;;;;5014856;28;20853;-72
2021/06/28 12:03:36;;;;;;;12.77;11.68;;;;;;;;;;5017692;28;20457;-72
2021/06/28 12:06:06;;;;;;;12.57;11.30;;;;;;;;;;5016067;28;20310;-72
2021/06/28 12:08:31;;;;;;;13.02;11.73;;;;;;;;;;5017693;28;20564;-71
2021/06/28 12:10:57;;;;;;;12.97;11.83;;;;;;;;;;5018499;28;20174;-72
2021/06/28 12:13:36;;;;;;;13.35;12.05;;;;;;;;;;5019020;28;20424;-72
2021/06/28 12:16:16;;;;;;;10.70;9.80;;;;;;;;;;5019811;28;20556;-72
2021/06/28 12:18:42;;;;;;;12.00;10.82;;;;;;;;;;5016756;28;20194;-72
2021/06/28 12:21:07;;;;;;;12.27;10.93;;;;;;;;;;5013619;28;20197;-71
2021/06/28 12:23:32;;;;;;;12.10;10.98;;;;;;;;;;5018858;28;20206;-71
2021/06/28 12:26:07;;;;;;;14.97;12.30;;;;;;;;;;5018126;28;20202;-71
2021/06/28 12:28:32;;;;;;;12.63;11.32;;;;;;;;;;5022927;28;20308;-71
2021/06/28 12:30:57;;;;;;;11.53;10.40;;;;;;;;;;5016236;28;20274;-71
2021/06/28 12:33:22;;;;;;;11.17;10.17;;;;;;;;;;5016461;28;20435;-72
2021/06/28 12:35:56;;;;;;;14.30;12.90;;;;;;;;;;5018079;28;20432;-72
2021/06/28 12:38:22;;;;;;;13.38;11.82;;;;;;;;;;5018462;28;22234;-72
2021/06/28 12:40:47;;;;;;;12.27;11.18;;;;;;;;;;5014708;28;20316;-72
2021/06/28 12:43:15;;;;;;;13.63;12.27;;;;;;;;;;5019224;28;20268;-72
2021/06/28 12:45:45;;;;;;;12.80;11.70;;;;;;;;;;5018557;28;20455;-72
2021/06/28 12:48:14;;;;;;;14.00;12.60;;;;;;;;;;5018764;28;20220;-72
2021/06/28 12:50:40;;;;;;;14.68;13.27;;;;;;;;;;5019195;28;20604;-72
2021/06/28 12:53:15;;;;;;;16.13;14.52;;;;;;;;;;5018193;28;20214;-72
2021/06/28 12:55:41;;;;;;;16.45;13.98;;;;;;;;;;5021550;28;20268;-71
2021/06/28 12:58:11;;;;;;;15.13;13.63;;;;;;;;;;5029819;28;20210;-71
2021/06/28 13:00:42;;;;;;;13.88;12.57;;;;;;;;;;5040566;28;20181;-71
2021/06/28 13:03:09;;;;;;;16.02;14.45;;;;;;;;;;5026823;28;20186;-72
2021/06/28 13:05:39;;;;;;;15.80;14.40;;;;;;;;;;5025397;28;20218;-72
2021/06/28 13:08:08;;;;;;;15.85;14.25;;;;;;;;;;5046929;28;20213;-72
2021/06/28 13:10:34;;;;;;;16.83;14.88;;;;;;;;;;5042676;28;20167;-72
2021/06/28 13:13:15;;;;;;;15.93;14.50;;;;;;;;;;5045329;28;20178;-72
2021/06/28 13:15:41;;;;;;;14.10;12.88;;;;;;;;;;5047554;28;20246;-72
2021/06/28 13:18:06;;;;;;;13.82;12.38;;;;;;;;;;5044576;28;20194;-72
2021/06/28 13:20:31;;;;;;;14.73;13.40;;;;;;;;;;5042104;28;20228;-70
2021/06/28 13:22:56;;;;;;;12.80;11.60;;;;;;;;;;5040144;28;20440;-72
2021/06/28 13:25:22;;;;;;;12.35;11.27;;;;;;;;;;5035723;28;20467;-72
2021/06/28 13:27:48;;;;;;;12.50;11.18;;;;;;;;;;5019016;28;20603;-72
2021/06/28 13:30:16;;;;;;;11.77;10.75;;;;;;;;;;5014457;28;20186;-72
2021/06/28 13:32:42;;;;;;;12.60;11.40;;;;;;;;;;5016157;28;20690;-72
2021/06/28 13:35:07;;;;;;;11.73;10.52;;;;;;;;;;5022940;28;20238;-72
2021/06/28 13:37:32;;;;;;;12.98;11.68;;;;;;;;;;5017324;28;20690;-72
2021/06/28 13:40:00;;;;;;;11.52;10.52;;;;;;;;;;5018235;28;20203;-73
2021/06/28 13:42:36;;;;;;;11.05;10.05;;;;;;;;;;5019792;28;20296;-73
2021/06/28 13:45:25;;;;;;;11.38;10.32;;;;;;;;;;5019041;28;20738;-72
2021/06/28 13:47:50;;;;;;;12.60;11.50;;;;;;;;;;5017545;28;20659;-73
2021/06/28 13:50:16;;;;;;;11.48;10.48;;;;;;;;;;5018481;28;20213;-72
2021/06/28 13:52:42;;;;;;;11.38;10.38;;;;;;;;;;5016401;28;20206;-72
2021/06/28 13:55:07;;;;;;;11.45;10.25;;;;;;;;;;5017197;28;20221;-72
2021/06/28 13:57:42;;;;;;;11.27;10.32;;;;;;;;;;5016245;28;20574;-72
2021/06/28 14:00:08;;;;;;;12.18;11.13;;;;;;;;;;5033106;28;20175;-72
2021/06/28 14:02:33;;;;;;;13.18;11.88;;;;;;;;;;5014865;28;21734;-72
2021/06/28 14:04:58;;;;;;;14.37;13.07;;;;;;;;;;5018981;28;20253;-72
2021/06/28 14:07:23;;;;;;;14.10;12.80;;;;;;;;;;5021240;28;20420;-73
2021/06/28 14:09:48;;;;;;;15.57;14.07;;;;;;;;;;5012864;28;20221;-73
2021/06/28 14:12:13;;;;;;;14.32;12.85;;;;;;;;;;5014125;28;20170;-72
2021/06/28 14:14:39;;;;;;;13.43;12.07;;;;;;;;;;5018186;28;20256;-72